This is the latest recevied weather packets stored in our database for station/object DC1MBB-9. If no packets are shown the sender has not sent any weather packets the latest 1 day(s).
| Time | Temp. | Humidity | Pressure | Rain* | Wind** | Luminosity | Snow |
|---|---|---|---|---|---|---|---|
| 1778081630 | 16.11° C | 97% | 948 hPa | - | - | - | - |
| 1778079826 | 16.67° C | 79% | 949 hPa | - | - | - | - |
| 1778079465 | 17.22° C | 77% | 949 hPa | - | - | - | - |
| 1778078383 | 20° C | 60% | 948 hPa | - | - | - | - |
| 1778078022 | 20.56° C | 51% | 948 hPa | - | - | - | - |
| 1778076579 | 21.67° C | 45% | 947 hPa | - | - | - | - |
| 1778075497 | 22.22° C | 42% | 947 hPa | - | - | - | - |
| 1778074775 | 22.78° C | 41% | 947 hPa | - | - | - | - |
| 1778073332 | 23.33° C | 43% | 947 hPa | - | - | - | - |
| 1778071528 | 22.78° C | 45% | 947 hPa | - | - | - | - |
| 1778071167 | 22.22° C | 44% | 948 hPa | - | - | - | - |
| 1778070085 | 21.67° C | 44% | 948 hPa | - | - | - | - |
| 1778069724 | 21.67° C | 44% | 948 hPa | - | - | - | - |
| 1778068281 | 21.67° C | 44% | 948 hPa | - | - | - | - |
| 1778067920 | 21.67° C | 44% | 948 hPa | - | - | - | - |
| 1778067559 | 21.67° C | 43% | 948 hPa | - | - | - | - |
| 1778066838 | 21.67° C | 45% | 948 hPa | - | - | - | - |
| 1778066477 | 21.67° C | 44% | 948 hPa | - | - | - | - |
| 1778064673 | 21.11° C | 45% | 949 hPa | - | - | - | - |
| 1778063230 | 21.11° C | 45% | 949 hPa | - | - | - | - |
| 1778062869 | 21.11° C | 44% | 949 hPa | - | - | - | - |
| 1778061426 | 20.56° C | 46% | 949 hPa | - | - | - | - |
| 1778061065 | 20.56° C | 47% | 949 hPa | - | - | - | - |
| 1778059983 | 20.56° C | 48% | 949 hPa | - | - | - | - |
| 1778059622 | 20° C | 49% | 949 hPa | - | - | - | - |
* Rain since midnight (hover to see other rain measurements)
** Current wind speed in m/s (hover to see current wind gust speed)